| Record Date MM/DD/YYYY | Record Julian Date NNN day of the year | Air Temperature Max (Degrees Fahrenheit F) | Time Max Air Temperature HH:MM:SS This is the time of max air temperature standard time. | Air Temperature Min (Degrees Fahrenheit F) | Time Min Air Temperature HH:MM:SS This is the time of min air temperature standard time. | Air Temperature Observed (Degrees Fahrenheit F) This is an instantaneous reading for air temperature at 7:00:00 standard time. | Relative Humidity Max (Percent) | Time Max Relative Humidity HH:MM:SS This is the time of max relative humidity standard time. | Relative Humidity Min (Percent) | Time Min Relative Humidity HH:MM:SS This is the time of min relative humidity standard time. | Relative Humidity Observed (Percent) This is an instantaneous reading at 7:00:00 standard time. | Precipitation (Inches n.nn) total rain fall that occurred for the day. | Pan Evaporation (Inches n.nn) total evaporation that occured for the day. | Wind Run (Miles) Wind travel for the day. | Wind Speed (Miles Per Hour) Resultant / Average speed for the day. | Wind Direction (Degrees) Resultant Direction for the day | Solar Radiation (Langley's) that occurred for the day. | Soil Temperature Max at 2 inch depth (Degrees Fahrenheit F) that occurred during the day. | Time Max Soil temperature at 2 inches HH:MM:SS This is the time of max 2 inch soil temperature standard time. | Soil Temperature Min at 2 inch depth (Degrees Fahrenheit F) that occurred during the day. | Time Min Soil temperature at 2 inches HH:MM:SS This is the time of min 2 inch soil temperature standard time. | Soil Temperature Observed at 2 inch depth (Degrees Fahrenheit F) This is an instantaneous reading 2 inch soil temperature at 7:00:00 standard time. | Soil Temperature Max at 4 inch depth (Degrees Fahrenheit F) that occurred during the day. | Time Max Soil temperature at 4 inches HH:MM:SS This is the time of max 4 inch soil temperature standard time. | Soil Temperature Min at 4 inch depth (Degrees Fahrenheit F) that occurred during the day. | Time Min Soil temperature at 4 inches HH:MM:SS This is the time of min 4 inch soil temperature standard time. | Soil Temperature Observed at 4 inch depth (Degrees Fahrenheit F) This is an instantaneous reading 4 inch soil temperature at 7:00:00 standard time. | DD50 Degree Days 50 Fahrenheit. | Adjusted DD50 Degree Days 50 Fahrenheit adjusted for latitude. | DD60 Degree Days 60 Fahrenheit. |
|---|---|---|---|---|---|---|---|---|---|---|---|---|---|---|---|---|---|---|---|---|---|---|---|---|---|---|---|---|---|---|
| 08/01/2026 | 213 | 96 | 15:40:00 | 76 | 5:24:01 | 79 | 93 | 5:41:00 | 51 | 14:26:03 | 89 | 0 | 142 | 5.9 | 242 | 575 | 97 | 14:47:05 | 83 | 5:51:02 | 83 | 93 | 15:09:04 | 84 | 6:24:02 | 84 | 36 | 27.06 | 26 | |
| 08/02/2026 | 214 | 87 | 15:33:02 | 70 | 23:59:00 | 78 | 92 | 4:05:02 | 65 | 15:29:03 | 81 | 0 | 67 | 2.8 | 295 | 353 | 92 | 13:41:01 | 83 | 23:59:03 | 84 | 90 | 14:48:00 | 85 | 23:57:00 | 85 | 28.5 | 27.03 | 18.5 | |
| 08/03/2026 | 215 | 92 | 15:46:03 | 68 | 5:31:00 | 78 | 94 | 5:51:00 | 50 | 16:48:02 | 82 | 0 | 47 | 1.9 | 341 | 564 | 96 | 15:30:04 | 81 | 5:55:03 | 81 | 93 | 15:44:03 | 82 | 6:41:01 | 82 | 30 | 27 | 20 | |
| 08/04/2026 | 216 | 96 | 15:51:00 | 66 | 5:12:02 | 74 | 95 | 5:53:05 | 36 | 15:34:03 | 92 | 0 | 46 | 1.9 | 354 | 590 | 97 | 14:50:02 | 80 | 5:58:03 | 81 | 94 | 15:20:00 | 82 | 6:33:04 | 82 | 31 | 26.97 | 21 | |
| 08/05/2026 | 217 | 100 | 14:52:05 | 70 | 3:07:02 | 76 | 95 | 6:13:02 | 32 | 12:21:05 | 92 | 0 | 59 | 2.5 | 254 | 619 | 100 | 15:00:01 | 82 | 5:53:00 | 83 | 96 | 15:43:04 | 83 | 6:35:04 | 83 | 35 | 26.94 | 25 | |
| 08/06/2026 | 218 | 95 | 13:55:03 | 72 | 3:36:00 | 78 | 95 | 6:07:00 | 50 | 12:49:02 | 93 | 0 | 50 | 2.1 | 67 | 495 | 100 | 14:19:05 | 83 | 6:04:05 | 83 | 95 | 14:37:04 | 84 | 6:33:05 | 84 | 33.5 | 26.91 | 23.5 | |
| 08/07/2026 | 219 | 95 | 12:39:03 | 71 | 4:55:02 | 78 | 95 | 6:03:04 | 52 | 13:06:05 | 92 | 0 | 45 | 1.9 | 92 | 474 | 96 | 13:46:03 | 82 | 6:07:01 | 83 | 92 | 14:04:03 | 84 | 6:28:05 | 84 | 33 | 26.88 | 23 | |
| 08/08/2026 | 220 | 96 | 14:12:02 | 71 | 5:41:04 | 78 | 96 | 5:54:03 | 51 | 14:12:04 | 94 | 0 | 50 | 2.1 | 101 | 551 | 101 | 14:32:05 | 82 | 6:06:03 | 82 | 96 | 15:04:03 | 83 | 6:42:03 | 83 | 33.5 | 26.85 | 23.5 | |
| 08/09/2026 | 221 | 96 | 12:53:05 | 70 | 5:44:02 | 78 | 95 | 5:59:05 | 52 | 14:24:05 | 88 | 0 | 53 | 2.2 | 154 | 555 | 101 | 14:16:03 | 83 | 5:58:02 | 83 | 96 | 15:02:01 | 84 | 6:39:00 | 84 | 33 | 26.82 | 23 | |
| 08/10/2026 | 222 | 95 | 12:55:02 | 73 | 4:48:05 | 78 | 96 | 5:49:01 | 55 | 13:08:02 | 94 | 0 | 55 | 2.3 | 193 | 528 | 100 | 13:47:01 | 83 | 5:58:01 | 84 | 95 | 14:09:05 | 85 | 6:38:05 | 85 | 34 | 26.79 | 24 | |
| 08/11/2026 | 223 | 98 | 14:10:04 | 73 | 4:57:03 | 79 | 96 | 6:25:03 | 45 | 14:32:03 | 92 | 0 | 56 | 2.3 | 206 | 559 | 102 | 15:05:05 | 84 | 6:15:05 | 84 | 98 | 16:01:03 | 85 | 6:37:02 | 85 | 35.5 | 26.76 | 25.5 | |
| 08/12/2026 | 224 | 98 | 14:47:02 | 74 | 5:09:02 | 80 | 95 | 6:03:02 | 47 | 14:55:03 | 90 | 0 | 62 | 2.6 | 204 | 547 | 102 | 15:05:03 | 84 | 6:10:03 | 85 | 98 | 15:37:03 | 86 | 6:47:05 | 86 | 36 | 26.73 | 26 | |
| 08/13/2026 | 225 | 96 | 15:47:01 | 77 | 1:31:05 | 82 | 94 | 2:14:01 | 55 | 15:47:02 | 89 | 0 | 83 | 3.5 | 225 | 532 | 101 | 13:58:00 | 86 | 5:56:01 | 86 | 97 | 15:47:02 | 87 | 6:31:00 | 87 | 36.5 | 26.7 | 26.5 | |
| 08/14/2026 | 226 | 99 | 15:03:01 | 75 | 23:46:02 | 80 | 92 | 6:02:01 | 38 | 13:05:03 | 87 | 0 | 72 | 3.0 | 241 | 606 | 104 | 14:52:01 | 85 | 6:09:04 | 85 | 99 | 15:32:01 | 86 | 6:51:01 | 86 | 37 | 26.67 | 27 | |
| 08/15/2026 | 227 | 101 | 14:54:00 | 73 | 5:34:00 | 80 | 95 | 6:31:02 | 45 | 14:54:01 | 92 | 0 | 64 | 2.7 | 198 | 527 | 101 | 15:33:01 | 85 | 5:55:03 | 85 | 98 | 16:29:02 | 86 | 6:44:02 | 86 | 37 | 26.64 | 27 | |
| 08/16/2026 | 228 | 101 | 13:08:00 | 74 | 23:57:04 | 82 | 93 | 6:13:04 | 46 | 12:48:04 | 85 | 0 | 61 | 2.5 | 285 | 434 | 103 | 13:27:01 | 86 | 6:20:00 | 87 | 98 | 13:57:03 | 87 | 6:48:01 | 87 | 37.5 | 26.61 | 27.5 | |
| 08/17/2026 | 229 | 101 | 13:20:00 | 73 | 5:37:04 | 79 | 94 | 6:00:03 | 47 | 13:36:02 | 90 | 0 | 75 | 3.1 | 234 | 543 | 105 | 13:56:00 | 84 | 6:03:01 | 85 | 99 | 14:24:04 | 86 | 6:32:04 | 86 | 37 | 26.58 | 27 | |
| 08/18/2026 | 230 | 99 | 12:40:02 | 75 | 14:35:00 | 80 | 94 | 21:12:05 | 54 | 12:34:00 | 86 | 0.3 | 81 | 3.4 | 275 | 367 | 103 | 13:22:01 | 84 | 23:58:01 | 86 | 98 | 13:45:05 | 86 | 23:58:05 | 87 | 37 | 26.55 | 27 | |
| 08/19/2026 | 231 | 97 | 15:07:01 | 75 | 0:59:04 | 78 | 94 | 2:52:04 | 52 | 15:04:03 | 93 | 0 | 78 | 3.2 | 235 | 581 | 101 | 14:49:04 | 82 | 5:52:05 | 83 | 98 | 15:23:04 | 84 | 6:29:01 | 84 | 36 | 26.52 | 26 | |
| 08/20/2026 | 232 | 98 | 14:48:01 | 75 | 22:29:03 | 81 | 92 | 4:09:00 | 52 | 14:48:03 | 89 | 0 | 83 | 3.4 | 251 | 418 | 99 | 12:15:05 | 84 | 6:24:04 | 84 | 95 | 12:47:02 | 86 | 6:43:04 | 86 | 36.5 | 26.49 | 26.5 | |
| 08/21/2026 | 233 | 100 | 14:51:05 | 72 | 23:31:04 | 79 | 94 | 23:55:04 | 49 | 14:22:05 | 91 | 1.32 | 69 | 2.9 | 260 | 448 | 101 | 14:30:04 | 83 | 23:58:03 | 83 | 97 | 15:09:00 | 84 | 23:55:03 | 84 | 36 | 26.45 | 26 | |
| 08/22/2026 | 234 | 97 | 15:01:04 | 71 | 5:20:05 | 75 | 95 | 2:56:01 | 45 | 16:42:02 | 93 | 0 | 46 | 1.9 | 325 | 587 | 95 | 15:07:04 | 81 | 5:49:05 | 81 | 94 | 15:22:03 | 82 | 6:11:02 | 82 | 34 | 26.42 | 24 | |
| 08/23/2026 | 235 | 96 | 14:41:05 | 73 | 3:53:03 | 78 | 96 | 6:32:00 | 54 | 15:33:01 | 95 | 0 | 45 | 1.9 | 203 | 453 | 94 | 15:34:04 | 83 | 5:48:01 | 83 | 93 | 15:54:00 | 84 | 6:18:05 | 84 | 34.5 | 26.39 | 24.5 | |
| 08/24/2026 | 236 | 90 | 9:35:05 | 73 | 23:45:03 | 79 | 95 | 23:35:00 | 70 | 9:42:03 | 94 | 0.65 | 55 | 2.3 | 288 | 237 | 88 | 9:51:00 | 82 | 23:59:04 | 83 | 88 | 12:02:05 | 83 | 23:58:05 | 84 | 31.5 | 26.36 | 21.5 | |
| 08/25/2026 | 237 | 94 | 14:18:05 | 72 | 3:02:05 | 75 | 96 | 6:02:05 | 60 | 14:03:05 | 96 | 0 | 59 | 2.5 | 329 | 464 | 90 | 14:43:03 | 80 | 6:01:00 | 80 | 90 | 14:44:05 | 81 | 6:37:01 | 81 | 33 | 26.33 | 23 | |
| 08/26/2026 | 238 | 97 | 15:44:01 | 73 | 4:19:00 | 76 | 95 | 6:11:05 | 48 | 16:05:02 | 95 | 0 | 52 | 2.2 | 255 | 525 | 94 | 14:44:03 | 81 | 6:06:03 | 81 | 93 | 15:22:01 | 82 | 6:44:01 | 82 | 35 | 26.3 | 25 | |
| 08/27/2026 | 239 | 86 | 15:10:01 | 71 | 6:48:02 | 71 | 95 | 23:52:01 | 70 | 15:13:01 | 95 | 2.44 | 83 | 3.5 | 349 | 338 | 87 | 15:39:01 | 78 | 1:57:04 | 78 | 87 | 16:06:02 | 79 | 7:10:04 | 79 | 28.5 | 26.26 | 18.5 | |
| 08/28/2026 | 240 | 94 | 15:08:01 | 71 | 5:42:03 | 74 | 96 | 7:09:04 | 53 | 14:18:05 | 96 | 0.14 | 49 | 2.0 | 28 | 514 | 91 | 15:21:02 | 80 | 6:16:01 | 80 | 90 | 15:39:00 | 81 | 6:39:03 | 81 | 32.5 | 26.23 | 22.5 | |
| 08/29/2026 | 241 | 94 | 15:55:01 | 72 | 5:49:05 | 74 | 95 | 6:29:05 | 46 | 14:12:04 | 95 | 0.01 | 44 | 1.8 | 58 | 576 | 92 | 14:31:00 | 81 | 6:25:01 | 81 | 91 | 15:25:01 | 82 | 7:05:00 | 82 | 33 | 26.2 | 23 | |
| 08/30/2026 | 242 | 91 | 12:34:04 | 74 | 5:20:05 | 76 | 95 | 5:55:03 | 61 | 12:23:00 | 93 | 0.12 | 45 | 1.9 | 83 | 414 | 91 | 13:07:02 | 83 | 6:31:01 | 83 | 89 | 16:00:00 | 83 | 7:09:03 | 83 | 32.5 | 26.17 | 22.5 | |
| Average | 95.83 | 72.43 | 77.77 | 94.57 | 51.03 | 91.1 | 0.17 | 62.53 | 499.13 | 97.47 | 82.6 | 83 | 94.33 | 83.87 | 83.93 | 34.13 | 26.62 | 24.13 | ||||||||||||
| Total | 4.98 | 1024 | 798.61 | 724 |